Back to Top

Language: 

My Weather Underground Personal Weather Station Historical Data with Graphs...

Delerius Weather Station Historical Data
Daily Summary for March 30, 2017 Units:  Metric    English   Both
« Previous Day
Next Day »
Daily Weekly Monthly Yearly Custom
  High: Low: Average:
Temperature: 18.4 °C 12.8 °C 15 °C
Dew Point: 12.8 °C 8.8 °C 11.1 °C
Humidity: 90 % 61 % 78 %
Wind Speed: 29 km/h 4.8 km/h 16.4 km/h
Wind Gust: 48.3 km/h - -
Wind:- - SSW
Pressure: 1016.1 hPa 1010.4 hPa -
Precipitation: 0.25 mm    
Historical Graphs
 
 
Tabular Data for March 30, 2017
Time Temperature Dew Point Pressure Wind Wind Speed Wind Gust Humidity Rainfall Rate (Hourly) solar Conditions
00:04 13.2 °C 11.3 °C 1016.1 hPa SSW 17.7 km/h 30.6 km/h 88 % 0 mm 0 W/m2
00:09 13.2 °C 11.3 °C 1016.1 hPa SSW 17.7 km/h 30.6 km/h 88 % 0 mm 0 W/m2
00:14 13.2 °C 11.3 °C 1016.1 hPa SSW 16.1 km/h 29 km/h 88 % 0 mm 0 W/m2
00:17 13.1 °C 11.2 °C 1015.8 hPa SSW 16.1 km/h 29 km/h 88 % 0 mm 0 W/m2
00:22 13.2 °C 11.3 °C 1015.8 hPa SSW 17.7 km/h 35.4 km/h 88 % 0 mm 0 W/m2
00:27 13.1 °C 11.2 °C 1015.8 hPa SSW 19.3 km/h 35.4 km/h 88 % 0 mm 0 W/m2
00:32 13.1 °C 11.2 °C 1016.1 hPa SW 19.3 km/h 30.6 km/h 88 % 0 mm 0 W/m2
00:37 13.1 °C 11.3 °C 1015.8 hPa SW 19.3 km/h 45.1 km/h 89 % 0 mm 0 W/m2
00:41 13 °C 11.2 °C 1015.8 hPa SSW 17.7 km/h 45.1 km/h 89 % 0 mm 0 W/m2
00:46 12.9 °C 11.1 °C 1015.8 hPa SSW 14.5 km/h 22.5 km/h 89 % 0 mm 0 W/m2
00:52 12.8 °C 11.1 °C 1015.8 hPa SSW 14.5 km/h 20.9 km/h 89 % 0 mm 0 W/m2
00:57 12.8 °C 11.1 °C 1016.1 hPa SSW 14.5 km/h 25.7 km/h 89 % 0 mm 0 W/m2
01:02 12.8 °C 11.1 °C 1015.8 hPa SSW 14.5 km/h 25.7 km/h 89 % 0 mm 0 W/m2
01:07 12.8 °C 11.1 °C 1015.8 hPa SSW 14.5 km/h 29 km/h 89 % 0 mm 0 W/m2
01:12 12.8 °C 11.1 °C 1015.8 hPa SSW 16.1 km/h 29 km/h 89 % 0 mm 0 W/m2
01:17 12.8 °C 11.1 °C 1015.8 hPa SSW 14.5 km/h 25.7 km/h 89 % 0 mm 0 W/m2
01:22 12.8 °C 11.1 °C 1015.8 hPa SSW 14.5 km/h 30.6 km/h 89 % 0 mm 0 W/m2
01:27 12.8 °C 11.1 °C 1015.8 hPa SSW 14.5 km/h 30.6 km/h 89 % 0 mm 0 W/m2
01:32 12.8 °C 11.1 °C 1015.8 hPa SSW 16.1 km/h 25.7 km/h 89 % 0 mm 0 W/m2
01:37 12.8 °C 11.1 °C 1015.8 hPa SSW 16.1 km/h 25.7 km/h 89 % 0 mm 0 W/m2
01:42 12.8 °C 11.1 °C 1015.8 hPa SSW 14.5 km/h 25.7 km/h 89 % 0 mm 0 W/m2
01:47 12.8 °C 11.1 °C 1015.8 hPa SSW 14.5 km/h 22.5 km/h 89 % 0 mm 0 W/m2
01:48 12.8 °C 11.1 °C 1015.8 hPa SSW 14.5 km/h 22.5 km/h 89 % 0 mm 0 W/m2
01:53 12.8 °C 11.1 °C 1015.8 hPa SSW 14.5 km/h 22.5 km/h 89 % 0 mm 0 W/m2
01:58 12.8 °C 11.1 °C 1015.8 hPa SSW 12.9 km/h 22.5 km/h 89 % 0 mm 0 W/m2
01:59 12.8 °C 11.1 °C 1015.8 hPa SSW 12.9 km/h 22.5 km/h 89 % 0 mm 0 W/m2
02:04 12.8 °C 11.1 °C 1015.8 hPa SSW 12.9 km/h 22.5 km/h 89 % 0 mm 0 W/m2
02:09 12.8 °C 11.1 °C 1015.8 hPa SW 12.9 km/h 19.3 km/h 89 % 0 mm 0 W/m2
02:10 12.8 °C 11.1 °C 1015.8 hPa SW 12.9 km/h 19.3 km/h 89 % 0 mm 0 W/m2
02:15 12.8 °C 11.2 °C 1015.8 hPa SW 12.9 km/h 22.5 km/h 90 % 0 mm 0 W/m2
02:20 12.8 °C 11.1 °C 1015.5 hPa SSW 16.1 km/h 29 km/h 89 % 0 mm 0 W/m2
02:25 12.9 °C 11.1 °C 1015.5 hPa SSW 17.7 km/h 29 km/h 89 % 0 mm 0 W/m2
02:30 12.9 °C 11.1 °C 1015.5 hPa SW 16.1 km/h 24.1 km/h 89 % 0 mm 0 W/m2
02:35 12.9 °C 11.1 °C 1015.5 hPa SW 16.1 km/h 35.4 km/h 89 % 0 mm 0 W/m2
02:40 12.9 °C 11.1 °C 1015.5 hPa SSW 17.7 km/h 35.4 km/h 89 % 0 mm 0 W/m2
02:45 12.9 °C 11.1 °C 1015.5 hPa SW 14.5 km/h 25.7 km/h 89 % 0 mm 0 W/m2
02:50 13 °C 11.2 °C 1015.5 hPa SW 14.5 km/h 30.6 km/h 89 % 0 mm 0 W/m2
02:55 13 °C 11.2 °C 1015.5 hPa SW 16.1 km/h 30.6 km/h 89 % 0 mm 0 W/m2
03:00 13 °C 11.2 °C 1015.5 hPa SSW 16.1 km/h 30.6 km/h 89 % 0 mm 0 W/m2
03:06 13 °C 11.2 °C 1015.5 hPa SSW 16.1 km/h 30.6 km/h 89 % 0 mm 0 W/m2
03:11 13.1 °C 11.2 °C 1015.5 hPa SW 16.1 km/h 24.1 km/h 88 % 0 mm 0 W/m2
03:16 13.1 °C 11.2 °C 1015.5 hPa SW 17.7 km/h 32.2 km/h 88 % 0 mm 0 W/m2
03:21 13.1 °C 11.2 °C 1015.5 hPa SW 17.7 km/h 32.2 km/h 88 % 0 mm 0 W/m2
03:26 13.1 °C 11.2 °C 1015.1 hPa SSW 16.1 km/h 24.1 km/h 88 % 0 mm 0 W/m2
03:31 13.1 °C 11.2 °C 1015.1 hPa SSW 16.1 km/h 25.7 km/h 88 % 0 mm 0 W/m2
03:36 13.1 °C 11.2 °C 1015.1 hPa SW 17.7 km/h 25.7 km/h 88 % 0 mm 0 W/m2
03:41 13.1 °C 11.2 °C 1015.1 hPa SW 17.7 km/h 25.7 km/h 88 % 0 mm 0 W/m2
03:46 13.1 °C 11.2 °C 1015.1 hPa SW 16.1 km/h 25.7 km/h 88 % 0 mm 0 W/m2
03:51 13.1 °C 11.2 °C 1015.1 hPa SW 16.1 km/h 25.7 km/h 88 % 0 mm 0 W/m2
03:56 13.1 °C 11.2 °C 1015.1 hPa SW 14.5 km/h 24.1 km/h 88 % 0 mm 0 W/m2
04:01 13.1 °C 11.2 °C 1015.1 hPa SSW 16.1 km/h 25.7 km/h 88 % 0 mm 0 W/m2
04:06 13.1 °C 11.2 °C 1015.1 hPa SSW 16.1 km/h 29 km/h 88 % 0 mm 0 W/m2
04:11 13.1 °C 11.2 °C 1015.1 hPa SW 17.7 km/h 29 km/h 88 % 0 mm 0 W/m2
04:16 13.1 °C 11.2 °C 1015.1 hPa SW 16.1 km/h 25.7 km/h 88 % 0 mm 0 W/m2
04:21 13.1 °C 11.2 °C 1015.1 hPa SSW 14.5 km/h 25.7 km/h 88 % 0 mm 0 W/m2
04:26 13.1 °C 11.2 °C 1015.1 hPa SSW 16.1 km/h 29 km/h 88 % 0 mm 0 W/m2
04:31 13.1 °C 11.2 °C 1015.1 hPa SSW 17.7 km/h 29 km/h 88 % 0 mm 0 W/m2
04:36 13.1 °C 11.2 °C 1015.1 hPa SW 14.5 km/h 25.7 km/h 88 % 0 mm 0 W/m2
04:41 13.1 °C 11.2 °C 1015.1 hPa SW 12.9 km/h 17.7 km/h 88 % 0 mm 0 W/m2
04:46 13.1 °C 11.2 °C 1015.1 hPa SW 11.3 km/h 17.7 km/h 88 % 0 mm 0 W/m2
04:51 13.1 °C 11.2 °C 1015.1 hPa SW 11.3 km/h 22.5 km/h 88 % 0 mm 0 W/m2
04:56 13.1 °C 11.2 °C 1015.1 hPa SW 12.9 km/h 22.5 km/h 88 % 0 mm 0 W/m2
05:01 13.1 °C 11.2 °C 1015.1 hPa SW 14.5 km/h 30.6 km/h 88 % 0 mm 0 W/m2
05:06 13.1 °C 11.2 °C 1015.1 hPa SW 16.1 km/h 30.6 km/h 88 % 0 mm 0 W/m2
05:11 13.1 °C 11.2 °C 1015.1 hPa SW 12.9 km/h 20.9 km/h 88 % 0 mm 0 W/m2
05:16 13.1 °C 11.2 °C 1015.1 hPa SW 12.9 km/h 20.9 km/h 88 % 0 mm 0 W/m2
05:21 13.1 °C 11.2 °C 1015.1 hPa SW 12.9 km/h 24.1 km/h 88 % 0 mm 0 W/m2
05:22 13.1 °C 11.2 °C 1015.1 hPa SW 12.9 km/h 24.1 km/h 88 % 0 mm 0 W/m2
05:27 13.1 °C 11.2 °C 1015.1 hPa SW 12.9 km/h 24.1 km/h 88 % 0 mm 0 W/m2
05:32 13.1 °C 11.2 °C 1015.1 hPa SW 12.9 km/h 20.9 km/h 88 % 0 mm 0 W/m2
05:37 13.1 °C 11 °C 1015.1 hPa SW 16.1 km/h 29 km/h 87 % 0 mm 0 W/m2
05:42 13.2 °C 11.1 °C 1015.1 hPa SW 19.3 km/h 30.6 km/h 87 % 0 mm 0 W/m2
05:47 13.2 °C 11.1 °C 1015.1 hPa SW 19.3 km/h 35.4 km/h 87 % 0 mm 0 W/m2
05:52 13.2 °C 11.1 °C 1015.1 hPa SW 17.7 km/h 35.4 km/h 87 % 0 mm 0 W/m2
05:57 13.2 °C 11.1 °C 1015.1 hPa SW 17.7 km/h 29 km/h 87 % 0 mm 0 W/m2
06:02 13.2 °C 11.1 °C 1015.1 hPa SW 17.7 km/h 32.2 km/h 87 % 0 mm 0 W/m2
06:07 13.2 °C 11.1 °C 1015.1 hPa SW 17.7 km/h 38.6 km/h 87 % 0 mm 0 W/m2
06:12 13.1 °C 10.8 °C 1015.1 hPa SW 19.3 km/h 38.6 km/h 86 % 0 mm 0 W/m2
06:17 13.1 °C 10.8 °C 1014.8 hPa SW 20.9 km/h 33.8 km/h 86 % 0 mm 0 W/m2
06:22 13 °C 10.7 °C 1014.8 hPa SW 19.3 km/h 33.8 km/h 86 % 0 mm 0 W/m2
06:27 12.9 °C 10.6 °C 1015.1 hPa SW 19.3 km/h 35.4 km/h 86 % 0 mm 0 W/m2
06:32 12.9 °C 10.6 °C 1015.1 hPa SW 17.7 km/h 35.4 km/h 86 % 0 mm 0 W/m2
06:37 12.9 °C 10.6 °C 1015.1 hPa SW 17.7 km/h 29 km/h 86 % 0 mm 0 W/m2
06:42 12.8 °C 10.5 °C 1015.1 hPa SW 19.3 km/h 33.8 km/h 86 % 0 mm 0 W/m2
06:47 12.8 °C 10.7 °C 1015.1 hPa SW 19.3 km/h 33.8 km/h 87 % 0 mm 0 W/m2
06:52 12.8 °C 10.7 °C 1015.1 hPa SW 20.9 km/h 32.2 km/h 87 % 0 mm 7 W/m2
06:57 12.8 °C 10.7 °C 1015.1 hPa SW 20.9 km/h 32.2 km/h 87 % 0 mm 12 W/m2
07:02 12.8 °C 10.7 °C 1015.1 hPa SW 19.3 km/h 32.2 km/h 87 % 0 mm 14 W/m2
07:07 12.8 °C 10.5 °C 1015.5 hPa SW 19.3 km/h 30.6 km/h 86 % 0 mm 11 W/m2
07:12 12.9 °C 10.8 °C 1015.5 hPa SW 17.7 km/h 30.6 km/h 87 % 0 mm 14 W/m2
07:17 12.8 °C 10.7 °C 1015.5 hPa SW 16.1 km/h 25.7 km/h 87 % 0 mm 23 W/m2
07:22 12.8 °C 10.7 °C 1015.1 hPa SW 16.1 km/h 30.6 km/h 87 % 0 mm 32 W/m2
07:28 12.8 °C 10.7 °C 1015.1 hPa SW 17.7 km/h 30.6 km/h 87 % 0 mm 39 W/m2
07:33 12.8 °C 10.7 °C 1015.1 hPa SW 19.3 km/h 29 km/h 87 % 0 mm 39 W/m2
07:38 12.8 °C 10.7 °C 1015.5 hPa SW 16.1 km/h 29 km/h 87 % 0 mm 33 W/m2
07:43 12.9 °C 10.8 °C 1015.5 hPa SW 14.5 km/h 22.5 km/h 87 % 0 mm 40 W/m2
07:48 12.9 °C 10.8 °C 1015.5 hPa SW 14.5 km/h 22.5 km/h 87 % 0 mm 44 W/m2
07:53 12.9 °C 10.8 °C 1015.5 hPa SW 16.1 km/h 25.7 km/h 87 % 0 mm 54 W/m2
07:58 12.9 °C 10.8 °C 1015.5 hPa SW 16.1 km/h 25.7 km/h 87 % 0 mm 76 W/m2
08:03 12.9 °C 10.8 °C 1015.5 hPa SW 17.7 km/h 32.2 km/h 87 % 0 mm 93 W/m2
08:08 13 °C 10.9 °C 1015.5 hPa SW 19.3 km/h 32.2 km/h 87 % 0 mm 125 W/m2
08:13 13.1 °C 11 °C 1015.5 hPa SW 19.3 km/h 30.6 km/h 87 % 0 mm 148 W/m2
08:18 13.2 °C 10.9 °C 1015.5 hPa SW 17.7 km/h 30.6 km/h 86 % 0 mm 93 W/m2
08:23 13.2 °C 10.9 °C 1015.5 hPa SW 16.1 km/h 30.6 km/h 86 % 0 mm 81 W/m2
08:28 13.2 °C 10.9 °C 1015.5 hPa SW 14.5 km/h 30.6 km/h 86 % 0 mm 95 W/m2
08:33 13.3 °C 11 °C 1015.5 hPa SW 14.5 km/h 25.7 km/h 86 % 0 mm 128 W/m2
08:38 13.3 °C 11 °C 1015.5 hPa SW 16.1 km/h 24.1 km/h 86 % 0 mm 127 W/m2
08:43 13.4 °C 11.1 °C 1015.5 hPa SW 14.5 km/h 24.1 km/h 86 % 0 mm 123 W/m2
08:48 13.4 °C 11.1 °C 1015.5 hPa SW 14.5 km/h 24.1 km/h 86 % 0 mm 137 W/m2
08:53 13.5 °C 11.2 °C 1015.5 hPa SW 14.5 km/h 24.1 km/h 86 % 0 mm 181 W/m2
08:58 13.6 °C 11.3 °C 1015.5 hPa SW 12.9 km/h 22.5 km/h 86 % 0 mm 195 W/m2
09:03 13.7 °C 11.2 °C 1015.1 hPa SW 12.9 km/h 25.7 km/h 85 % 0 mm 230 W/m2
09:08 13.9 °C 11.4 °C 1015.1 hPa SW 16.1 km/h 29 km/h 85 % 0 mm 251 W/m2
09:13 14 °C 11.3 °C 1015.5 hPa SSW 17.7 km/h 30.6 km/h 84 % 0 mm 148 W/m2
09:15 14 °C 11.3 °C 1015.5 hPa SSW 17.7 km/h 30.6 km/h 84 % 0 mm 156 W/m2
09:20 14.1 °C 11.4 °C 1015.5 hPa SSW 16.1 km/h 30.6 km/h 84 % 0 mm 179 W/m2
09:25 14.1 °C 11.4 °C 1015.5 hPa SSW 16.1 km/h 30.6 km/h 84 % 0 mm 162 W/m2
09:30 14.1 °C 11.4 °C 1015.1 hPa SSW 17.7 km/h 30.6 km/h 84 % 0 mm 153 W/m2
09:35 14.1 °C 11.4 °C 1015.5 hPa SSW 17.7 km/h 30.6 km/h 84 % 0 mm 84 W/m2
09:40 13.9 °C 11.2 °C 1015.5 hPa SSW 17.7 km/h 29 km/h 84 % 0 mm 56 W/m2
09:45 13.9 °C 11.4 °C 1015.5 hPa SSW 16.1 km/h 29 km/h 85 % 0 mm 49 W/m2
09:50 13.8 °C 11.5 °C 1015.5 hPa SSW 14.5 km/h 29 km/h 86 % 0 mm 70 W/m2
09:55 13.8 °C 11.5 °C 1015.5 hPa SSW 16.1 km/h 32.2 km/h 86 % 0 mm 102 W/m2
10:00 13.7 °C 11.6 °C 1015.5 hPa SSW 17.7 km/h 32.2 km/h 87 % 0 mm 160 W/m2
10:05 13.7 °C 11.6 °C 1015.1 hPa SSW 17.7 km/h 30.6 km/h 87 % 0 mm 172 W/m2
10:10 13.7 °C 11.7 °C 1015.5 hPa SSW 17.7 km/h 30.6 km/h 88 % 0 mm 167 W/m2
10:15 13.8 °C 11.8 °C 1015.5 hPa SSW 17.7 km/h 30.6 km/h 88 % 0 mm 315 W/m2
10:20 13.9 °C 11.9 °C 1015.5 hPa SW 16.1 km/h 25.7 km/h 88 % 0 mm 241 W/m2
10:25 14 °C 11.9 °C 1015.5 hPa SSW 17.7 km/h 30.6 km/h 87 % 0 mm 207 W/m2
10:30 14 °C 11.9 °C 1015.5 hPa SSW 16.1 km/h 30.6 km/h 87 % 0 mm 243 W/m2
10:35 14.1 °C 11.9 °C 1015.5 hPa SSW 14.5 km/h 22.5 km/h 87 % 0 mm 234 W/m2
10:41 14.1 °C 11.9 °C 1015.5 hPa SSW 12.9 km/h 24.1 km/h 87 % 0 mm 248 W/m2
10:46 14.2 °C 12.1 °C 1015.1 hPa SSW 12.9 km/h 24.1 km/h 87 % 0 mm 403 W/m2
10:51 14.4 °C 12.1 °C 1015.5 hPa SSW 14.5 km/h 25.7 km/h 86 % 0 mm 323 W/m2
10:56 14.5 °C 12 °C 1015.5 hPa SSW 17.7 km/h 33.8 km/h 85 % 0 mm 450 W/m2
11:01 14.7 °C 12 °C 1015.5 hPa SSW 20.9 km/h 33.8 km/h 84 % 0 mm 301 W/m2
11:06 14.8 °C 12.1 °C 1015.5 hPa SW 20.9 km/h 32.2 km/h 84 % 0 mm 355 W/m2
11:11 15.1 °C 12.2 °C 1015.5 hPa SW 19.3 km/h 30.6 km/h 83 % 0 mm 471 W/m2
11:16 15.2 °C 12.2 °C 1015.5 hPa SSW 17.7 km/h 32.2 km/h 82 % 0 mm 294 W/m2
11:21 15.2 °C 12.2 °C 1015.5 hPa SW 17.7 km/h 32.2 km/h 82 % 0 mm 86 W/m2
11:26 15.1 °C 11.9 °C 1015.5 hPa SW 16.1 km/h 32.2 km/h 81 % 0 mm 79 W/m2
11:30 15.1 °C 11.9 °C 1015.5 hPa SSW 14.5 km/h 29 km/h 81 % 0 mm 77 W/m2
11:35 15 °C 11.8 °C 1015.5 hPa SW 17.7 km/h 33.8 km/h 81 % 0 mm 127 W/m2
11:40 15.1 °C 11.9 °C 1015.5 hPa SW 19.3 km/h 35.4 km/h 81 % 0 mm 243 W/m2
11:45 15.1 °C 11.9 °C 1015.1 hPa SW 19.3 km/h 35.4 km/h 81 % 0 mm 274 W/m2
11:50 15.2 °C 11.9 °C 1015.1 hPa SW 17.7 km/h 33.8 km/h 81 % 0 mm 241 W/m2
11:55 15.2 °C 11.9 °C 1015.1 hPa SSW 17.7 km/h 32.2 km/h 81 % 0 mm 169 W/m2
12:00 15.2 °C 11.9 °C 1015.1 hPa SSW 17.7 km/h 30.6 km/h 81 % 0 mm 218 W/m2
12:05 15.2 °C 11.9 °C 1015.1 hPa SW 20.9 km/h 33.8 km/h 81 % 0 mm 116 W/m2
12:10 15.1 °C 11.9 °C 1015.1 hPa SW 19.3 km/h 33.8 km/h 81 % 0 mm 125 W/m2
12:15 15.1 °C 11.9 °C 1015.1 hPa SSW 14.5 km/h 24.1 km/h 81 % 0 mm 109 W/m2
12:20 15.1 °C 12.1 °C 1015.1 hPa SSW 12.9 km/h 25.7 km/h 82 % 0 mm 149 W/m2
12:25 15.2 °C 12.2 °C 1015.1 hPa SSW 14.5 km/h 25.7 km/h 82 % 0 mm 309 W/m2
12:30 15.4 °C 12.2 °C 1015.1 hPa SSW 16.1 km/h 29 km/h 81 % 0 mm 374 W/m2
12:35 15.7 °C 12.3 °C 1015.1 hPa SSW 17.7 km/h 35.4 km/h 80 % 0 mm 327 W/m2
12:40 15.8 °C 12.2 °C 1014.8 hPa SSW 17.7 km/h 35.4 km/h 79 % 0 mm 264 W/m2
12:45 16 °C 12.2 °C 1014.8 hPa SSW 19.3 km/h 35.4 km/h 78 % 0 mm 399 W/m2
12:50 16.1 °C 12.3 °C 1014.8 hPa SSW 20.9 km/h 37 km/h 78 % 0 mm 193 W/m2
12:55 16.1 °C 12.3 °C 1014.8 hPa SW 20.9 km/h 37 km/h 78 % 0 mm 123 W/m2
13:00 16.1 °C 12.3 °C 1014.8 hPa SW 19.3 km/h 37 km/h 78 % 0 mm 357 W/m2
13:05 16.1 °C 12.1 °C 1014.8 hPa SW 20.9 km/h 38.6 km/h 77 % 0 mm 225 W/m2
13:10 16.1 °C 12.1 °C 1014.8 hPa SW 24.1 km/h 38.6 km/h 77 % 0 mm 114 W/m2
13:11 16.1 °C 12.1 °C 1014.8 hPa SW 24.1 km/h 38.6 km/h 77 % 0 mm 114 W/m2
13:16 16.1 °C 12.1 °C 1014.8 hPa SW 22.5 km/h 38.6 km/h 77 % 0 mm 104 W/m2
13:21 16.1 °C 12.3 °C 1014.8 hPa SW 19.3 km/h 38.6 km/h 78 % 0 mm 204 W/m2
13:26 16.1 °C 12.1 °C 1014.8 hPa SSW 19.3 km/h 43.5 km/h 77 % 0 mm 176 W/m2
13:31 16.2 °C 11.9 °C 1014.8 hPa SSW 24.1 km/h 43.5 km/h 76 % 0 mm 274 W/m2
13:36 16.3 °C 12.1 °C 1014.4 hPa SSW 25.7 km/h 41.8 km/h 76 % 0 mm 190 W/m2
13:41 16.3 °C 12.1 °C 1014.4 hPa SSW 24.1 km/h 40.2 km/h 76 % 0 mm 223 W/m2
13:46 16.3 °C 12.1 °C 1014.4 hPa SSW 20.9 km/h 38.6 km/h 76 % 0 mm 193 W/m2
13:51 16.4 °C 12.2 °C 1014.4 hPa SSW 19.3 km/h 33.8 km/h 76 % 0 mm 359 W/m2
13:56 16.7 °C 12.4 °C 1014.4 hPa SSW 17.7 km/h 30.6 km/h 76 % 0 mm 234 W/m2
14:01 16.8 °C 12.3 °C 1014.1 hPa SSW 17.7 km/h 35.4 km/h 75 % 0 mm 315 W/m2
14:06 16.9 °C 12.2 °C 1014.1 hPa SSW 20.9 km/h 38.6 km/h 74 % 0 mm 227 W/m2
14:11 17 °C 12.3 °C 1014.1 hPa SW 22.5 km/h 38.6 km/h 74 % 0 mm 330 W/m2
14:16 17.1 °C 12.2 °C 1014.1 hPa SW 24.1 km/h 40.2 km/h 73 % 0 mm 394 W/m2
14:21 17.2 °C 12.3 °C 1014.1 hPa SSW 24.1 km/h 40.2 km/h 73 % 0 mm 290 W/m2
14:26 17.3 °C 12.4 °C 1014.1 hPa SW 24.1 km/h 40.2 km/h 73 % 0 mm 288 W/m2
14:31 17.3 °C 12.4 °C 1013.8 hPa SW 24.1 km/h 41.8 km/h 73 % 0 mm 355 W/m2
14:36 17.5 °C 12.4 °C 1014.1 hPa SW 27.4 km/h 46.7 km/h 72 % 0 mm 394 W/m2
14:41 17.4 °C 12.3 °C 1013.8 hPa SSW 29 km/h 48.3 km/h 72 % 0.25 mm 279 W/m2
14:46 17.4 °C 12.5 °C 1013.8 hPa SSW 25.7 km/h 48.3 km/h 73 % 0.25 mm 332 W/m2
14:51 17.6 °C 12.7 °C 1013.8 hPa SSW 24.1 km/h 46.7 km/h 73 % 0.25 mm 424 W/m2
14:56 17.6 °C 12.5 °C 1013.8 hPa SSW 24.1 km/h 46.7 km/h 72 % 0.25 mm 455 W/m2
15:01 17.6 °C 12.5 °C 1013.8 hPa SSW 25.7 km/h 45.1 km/h 72 % 0.25 mm 454 W/m2
15:06 17.7 °C 12.6 °C 1013.8 hPa SW 22.5 km/h 40.2 km/h 72 % 0.25 mm 255 W/m2
15:11 17.7 °C 12.6 °C 1013.8 hPa SSW 22.5 km/h 48.3 km/h 72 % 0.25 mm 362 W/m2
15:16 17.8 °C 12.4 °C 1013.8 hPa SW 25.7 km/h 48.3 km/h 71 % 0.25 mm 770 W/m2
15:21 18.1 °C 12.8 °C 1013.8 hPa SW 27.4 km/h 46.7 km/h 71 % 0.25 mm 636 W/m2
15:26 18.2 °C 12.4 °C 1013.4 hPa SSW 24.1 km/h 41.8 km/h 69 % 0.25 mm 701 W/m2
15:31 18.1 °C 12.6 °C 1013.4 hPa SW 24.1 km/h 41.8 km/h 70 % 0.25 mm 243 W/m2
15:36 18.1 °C 12.3 °C 1013.4 hPa SW 24.1 km/h 40.2 km/h 69 % 0 mm 287 W/m2
15:41 18.1 °C 12.3 °C 1013.4 hPa SW 24.1 km/h 40.2 km/h 69 % 0 mm 186 W/m2
15:46 17.9 °C 12.1 °C 1013.4 hPa SW 25.7 km/h 46.7 km/h 69 % 0 mm 236 W/m2
15:51 17.9 °C 12.6 °C 1013.4 hPa SW 22.5 km/h 46.7 km/h 71 % 0 mm 288 W/m2
15:56 17.9 °C 12.3 °C 1013.4 hPa SSW 20.9 km/h 40.2 km/h 70 % 0 mm 624 W/m2
16:01 18.2 °C 12.6 °C 1013.1 hPa SSW 20.9 km/h 37 km/h 70 % 0 mm 575 W/m2
16:07 18.3 °C 12.5 °C 1013.1 hPa SSW 19.3 km/h 32.2 km/h 69 % 0 mm 253 W/m2
16:12 18.2 °C 12.2 °C 1013.1 hPa SSW 22.5 km/h 40.2 km/h 68 % 0 mm 190 W/m2
16:17 17.8 °C 12.1 °C 1013.1 hPa SW 25.7 km/h 40.2 km/h 69 % 0 mm 216 W/m2
16:22 17.7 °C 12.2 °C 1013.1 hPa SSW 25.7 km/h 45.1 km/h 70 % 0 mm 292 W/m2
16:27 17.7 °C 12.2 °C 1013.1 hPa SW 25.7 km/h 45.1 km/h 70 % 0 mm 206 W/m2
16:32 17.7 °C 12.2 °C 1013.1 hPa SW 25.7 km/h 46.7 km/h 70 % 0 mm 176 W/m2
16:37 17.7 °C 12.2 °C 1013.1 hPa SSW 24.1 km/h 46.7 km/h 70 % 0 mm 207 W/m2
16:42 17.9 °C 12.1 °C 1013.1 hPa SSW 19.3 km/h 37 km/h 69 % 0 mm 264 W/m2
16:47 18 °C 12 °C 1013.1 hPa SSW 17.7 km/h 38.6 km/h 68 % 0 mm 213 W/m2
16:52 18 °C 11.6 °C 1013.1 hPa SW 22.5 km/h 48.3 km/h 66 % 0 mm 260 W/m2
16:57 18 °C 11.6 °C 1013.1 hPa SW 25.7 km/h 48.3 km/h 66 % 0 mm 214 W/m2
17:02 18 °C 11.1 °C 1013.1 hPa SW 25.7 km/h 45.1 km/h 64 % 0 mm 234 W/m2
17:07 18.1 °C 10.9 °C 1012.8 hPa SW 27.4 km/h 45.1 km/h 63 % 0 mm 381 W/m2
17:12 18.2 °C 11.1 °C 1012.8 hPa SW 27.4 km/h 46.7 km/h 63 % 0 mm 302 W/m2
17:17 18.3 °C 11.1 °C 1012.8 hPa SW 27.4 km/h 46.7 km/h 63 % 0 mm 316 W/m2
17:22 18.4 °C 11 °C 1012.8 hPa SSW 24.1 km/h 43.5 km/h 62 % 0 mm 339 W/m2
17:27 18.4 °C 11 °C 1012.8 hPa SSW 22.5 km/h 45.1 km/h 62 % 0 mm 144 W/m2
17:32 18.2 °C 11.1 °C 1012.8 hPa SSW 24.1 km/h 45.1 km/h 63 % 0 mm 274 W/m2
17:37 18.2 °C 11.1 °C 1012.8 hPa SSW 24.1 km/h 43.5 km/h 63 % 0 mm 163 W/m2
17:42 18.1 °C 10.9 °C 1012.4 hPa SSW 22.5 km/h 40.2 km/h 63 % 0 mm 125 W/m2
17:47 18 °C 11.1 °C 1012.4 hPa SSW 19.3 km/h 38.6 km/h 64 % 0 mm 128 W/m2
17:52 17.9 °C 11.2 °C 1012.4 hPa SSW 16.1 km/h 33.8 km/h 65 % 0 mm 95 W/m2
17:57 17.8 °C 11.1 °C 1012.4 hPa SSW 16.1 km/h 33.8 km/h 65 % 0 mm 76 W/m2
18:02 17.8 °C 11.1 °C 1012.4 hPa SSW 16.1 km/h 25.7 km/h 65 % 0 mm 77 W/m2
18:07 17.8 °C 11.3 °C 1012.4 hPa SSW 14.5 km/h 25.7 km/h 66 % 0 mm 69 W/m2
18:12 17.7 °C 11.5 °C 1012.4 hPa SSW 14.5 km/h 24.1 km/h 67 % 0 mm 91 W/m2
18:17 17.7 °C 11.5 °C 1012.4 hPa SSW 12.9 km/h 24.1 km/h 67 % 0 mm 109 W/m2
18:22 17.7 °C 11.3 °C 1012.4 hPa SSW 12.9 km/h 24.1 km/h 66 % 0 mm 88 W/m2
18:27 17.7 °C 11.3 °C 1012.4 hPa SSW 11.3 km/h 22.5 km/h 66 % 0 mm 74 W/m2
18:32 17.6 °C 11.2 °C 1012.4 hPa SSW 11.3 km/h 20.9 km/h 66 % 0 mm 76 W/m2
18:37 17.6 °C 11.2 °C 1012.4 hPa SSW 11.3 km/h 22.5 km/h 66 % 0 mm 72 W/m2
18:42 17.6 °C 11.2 °C 1012.4 hPa SSW 9.7 km/h 22.5 km/h 66 % 0 mm 65 W/m2
18:47 17.6 °C 10.9 °C 1012.1 hPa SSW 11.3 km/h 24.1 km/h 65 % 0 mm 63 W/m2
18:52 17.6 °C 10.7 °C 1012.1 hPa South 12.9 km/h 24.1 km/h 64 % 0 mm 49 W/m2
18:57 17.6 °C 10.2 °C 1012.1 hPa SSW 14.5 km/h 29 km/h 62 % 0 mm 39 W/m2
19:02 17.5 °C 10.4 °C 1012.1 hPa SSW 12.9 km/h 29 km/h 63 % 0 mm 32 W/m2
19:07 17.4 °C 10.5 °C 1012.1 hPa SSW 8 km/h 14.5 km/h 64 % 0 mm 30 W/m2
19:12 17.3 °C 10.2 °C 1012.1 hPa South 8 km/h 22.5 km/h 63 % 0 mm 21 W/m2
19:17 17.3 °C 9.9 °C 1012.1 hPa South 12.9 km/h 29 km/h 62 % 0 mm 16 W/m2
19:22 17.2 °C 9.6 °C 1012.1 hPa South 14.5 km/h 29 km/h 61 % 0 mm 11 W/m2
19:27 17.2 °C 9.8 °C 1012.1 hPa South 12.9 km/h 24.1 km/h 62 % 0 mm 9 W/m2
19:32 17.1 °C 9.8 °C 1012.1 hPa South 9.7 km/h 17.7 km/h 62 % 0 mm 7 W/m2
19:37 16.9 °C 9.6 °C 1012.1 hPa South 9.7 km/h 20.9 km/h 62 % 0 mm 7 W/m2
19:43 16.8 °C 9.5 °C 1012.1 hPa South 11.3 km/h 24.1 km/h 62 % 0 mm 0 W/m2
19:48 16.8 °C 9.2 °C 1012.1 hPa South 12.9 km/h 25.7 km/h 61 % 0 mm 0 W/m2
19:53 16.7 °C 9.1 °C 1012.1 hPa South 12.9 km/h 25.7 km/h 61 % 0 mm 0 W/m2
19:58 16.7 °C 9.1 °C 1012.1 hPa South 14.5 km/h 24.1 km/h 61 % 0 mm 0 W/m2
20:03 16.7 °C 9.1 °C 1012.1 hPa South 12.9 km/h 25.7 km/h 61 % 0 mm 0 W/m2
20:08 16.6 °C 9.1 °C 1012.1 hPa South 12.9 km/h 25.7 km/h 61 % 0 mm 0 W/m2
20:13 16.6 °C 9.1 °C 1012.1 hPa South 14.5 km/h 25.7 km/h 61 % 0 mm 0 W/m2
20:18 16.5 °C 8.9 °C 1012.1 hPa South 12.9 km/h 24.1 km/h 61 % 0 mm 0 W/m2
20:23 16.4 °C 8.8 °C 1012.1 hPa South 11.3 km/h 24.1 km/h 61 % 0 mm 0 W/m2
20:28 16.3 °C 9 °C 1012.1 hPa South 9.7 km/h 19.3 km/h 62 % 0 mm 0 W/m2
20:33 16.3 °C 9 °C 1012.1 hPa South 8 km/h 17.7 km/h 62 % 0 mm 0 W/m2
20:38 16.2 °C 8.9 °C 1011.7 hPa South 8 km/h 17.7 km/h 62 % 0 mm 0 W/m2
20:43 16.1 °C 9.1 °C 1011.7 hPa South 6.4 km/h 14.5 km/h 63 % 0 mm 0 W/m2
20:48 16 °C 8.9 °C 1011.7 hPa SSE 6.4 km/h 11.3 km/h 63 % 0 mm 0 W/m2
20:53 15.8 °C 8.8 °C 1011.7 hPa SSE 8 km/h 16.1 km/h 63 % 0 mm 0 W/m2
20:58 15.8 °C 9 °C 1011.7 hPa SE 9.7 km/h 16.1 km/h 64 % 0 mm 0 W/m2
21:03 15.7 °C 8.9 °C 1011.7 hPa SSE 6.4 km/h 14.5 km/h 64 % 0 mm 0 W/m2
21:08 15.6 °C 8.8 °C 1011.7 hPa SE 4.8 km/h 9.7 km/h 64 % 0 mm 0 W/m2
21:13 15.5 °C 8.9 °C 1011.7 hPa SE 4.8 km/h 9.7 km/h 65 % 0 mm 0 W/m2
21:18 15.4 °C 9.1 °C 1011.7 hPa SE 4.8 km/h 11.3 km/h 66 % 0 mm 0 W/m2
21:23 15.4 °C 9.1 °C 1011.7 hPa SSE 6.4 km/h 11.3 km/h 66 % 0 mm 0 W/m2
21:28 15.4 °C 9.1 °C 1011.7 hPa South 8 km/h 17.7 km/h 66 % 0 mm 0 W/m2
21:33 15.5 °C 9.4 °C 1011.7 hPa South 9.7 km/h 17.7 km/h 67 % 0 mm 0 W/m2
21:38 15.6 °C 9.5 °C 1011.4 hPa South 9.7 km/h 29 km/h 67 % 0 mm 0 W/m2
21:43 15.6 °C 9.5 °C 1011.7 hPa South 9.7 km/h 29 km/h 67 % 0 mm 0 W/m2
21:48 15.6 °C 9.5 °C 1011.4 hPa SSW 11.3 km/h 20.9 km/h 67 % 0 mm 0 W/m2
21:53 15.7 °C 9.6 °C 1011.4 hPa SSW 11.3 km/h 20.9 km/h 67 % 0 mm 0 W/m2
21:58 15.7 °C 9.6 °C 1011.7 hPa South 11.3 km/h 20.9 km/h 67 % 0 mm 0 W/m2
22:03 15.7 °C 9.6 °C 1011.4 hPa South 11.3 km/h 32.2 km/h 67 % 0 mm 0 W/m2
22:08 15.7 °C 9.6 °C 1011.4 hPa South 11.3 km/h 32.2 km/h 67 % 0 mm 0 W/m2
22:13 15.7 °C 9.8 °C 1011.4 hPa South 11.3 km/h 20.9 km/h 68 % 0 mm 0 W/m2
22:18 15.6 °C 9.7 °C 1011.4 hPa South 11.3 km/h 22.5 km/h 68 % 0 mm 0 W/m2
22:23 15.6 °C 9.7 °C 1011.4 hPa South 9.7 km/h 22.5 km/h 68 % 0 mm 0 W/m2
22:28 15.6 °C 9.7 °C 1011.1 hPa South 11.3 km/h 20.9 km/h 68 % 0 mm 0 W/m2
22:33 15.6 °C 9.7 °C 1011.1 hPa South 12.9 km/h 24.1 km/h 68 % 0 mm 0 W/m2
22:38 15.6 °C 9.7 °C 1011.1 hPa South 12.9 km/h 24.1 km/h 68 % 0 mm 0 W/m2
22:43 15.6 °C 9.7 °C 1011.1 hPa South 11.3 km/h 24.1 km/h 68 % 0 mm 0 W/m2
22:48 15.6 °C 9.7 °C 1011.1 hPa South 11.3 km/h 24.1 km/h 68 % 0 mm 0 W/m2
22:53 15.5 °C 9.6 °C 1011.1 hPa South 9.7 km/h 20.9 km/h 68 % 0 mm 0 W/m2
22:58 15.4 °C 9.7 °C 1010.7 hPa South 9.7 km/h 19.3 km/h 69 % 0 mm 0 W/m2
23:03 15.4 °C 9.7 °C 1010.7 hPa South 9.7 km/h 19.3 km/h 69 % 0 mm 0 W/m2
23:08 15.4 °C 9.9 °C 1010.7 hPa South 11.3 km/h 22.5 km/h 70 % 0 mm 0 W/m2
23:13 15.3 °C 9.8 °C 1010.7 hPa South 11.3 km/h 22.5 km/h 70 % 0 mm 0 W/m2
23:18 15.3 °C 9.8 °C 1010.7 hPa South 11.3 km/h 29 km/h 70 % 0 mm 0 W/m2
23:23 15.3 °C 9.8 °C 1010.7 hPa South 11.3 km/h 29 km/h 70 % 0 mm 0 W/m2
23:28 15.3 °C 9.7 °C 1010.4 hPa South 9.7 km/h 24.1 km/h 69 % 0 mm 0 W/m2
23:33 15.3 °C 9.8 °C 1010.4 hPa South 11.3 km/h 24.1 km/h 70 % 0 mm 0 W/m2
23:39 15.3 °C 9.8 °C 1010.4 hPa South 11.3 km/h 25.7 km/h 70 % 0 mm 0 W/m2
23:44 15.3 °C 9.8 °C 1010.4 hPa South 11.3 km/h 25.7 km/h 70 % 0 mm 0 W/m2
23:49 15.2 °C 9.8 °C 1010.4 hPa South 9.7 km/h 20.9 km/h 70 % 0 mm 0 W/m2
23:54 15.2 °C 9.8 °C 1010.4 hPa South 8 km/h 16.1 km/h 70 % 0 mm 0 W/m2
23:59 15.1 °C 9.9 °C 1010.4 hPa South 9.7 km/h 17.7 km/h 71 % 0 mm 0 W/m2
Delerius-Weather
Compliments of Weather Underground - 2.25 mb

Data updates at regular intervals.